sensor_id;sensor_type;location;lat;lon;timestamp;pressure;altitude;pressure_sealevel;temperature;humidity
30302;BME280;17111;52.130;5.028;2023-04-01T00:01:23;99113.81;;;18.24;51.02
30302;BME280;17111;52.130;5.028;2023-04-01T00:03:50;99113.22;;;18.22;50.90
30302;BME280;17111;52.130;5.028;2023-04-01T00:06:18;99117.75;;;18.22;51.02
30302;BME280;17111;52.130;5.028;2023-04-01T00:08:45;99124.13;;;18.21;51.25
30302;BME280;17111;52.130;5.028;2023-04-01T00:11:13;99117.94;;;18.20;51.17
30302;BME280;17111;52.130;5.028;2023-04-01T00:13:40;99126.19;;;18.19;50.86
30302;BME280;17111;52.130;5.028;2023-04-01T00:16:07;99125.34;;;18.18;50.80
30302;BME280;17111;52.130;5.028;2023-04-01T00:18:47;99129.91;;;18.18;51.14
30302;BME280;17111;52.130;5.028;2023-04-01T00:21:14;99131.75;;;18.17;51.26
30302;BME280;17111;52.130;5.028;2023-04-01T00:23:41;99132.56;;;18.18;51.03
30302;BME280;17111;52.130;5.028;2023-04-01T00:26:08;99136.47;;;18.15;51.07
30302;BME280;17111;52.130;5.028;2023-04-01T00:28:35;99133.78;;;18.15;51.17
30302;BME280;17111;52.130;5.028;2023-04-01T00:31:06;99131.09;;;18.15;51.03
30302;BME280;17111;52.130;5.028;2023-04-01T00:33:34;99128.63;;;18.14;50.97
30302;BME280;17111;52.130;5.028;2023-04-01T00:36:13;99139.53;;;18.12;50.93
30302;BME280;17111;52.130;5.028;2023-04-01T00:38:40;99138.53;;;18.13;51.21
30302;BME280;17111;52.130;5.028;2023-04-01T00:41:10;99140.56;;;18.11;51.17
30302;BME280;17111;52.130;5.028;2023-04-01T00:43:43;99145.31;;;18.09;51.02
30302;BME280;17111;52.130;5.028;2023-04-01T00:46:10;99143.44;;;18.10;51.44
30302;BME280;17111;52.130;5.028;2023-04-01T00:48:54;99144.66;;;18.07;51.17
30302;BME280;17111;52.130;5.028;2023-04-01T00:51:23;99143.00;;;18.06;51.45
30302;BME280;17111;52.130;5.028;2023-04-01T00:53:53;99148.38;;;18.06;51.32
30302;BME280;17111;52.130;5.028;2023-04-01T00:56:50;99150.59;;;18.03;51.62
30302;BME280;17111;52.130;5.028;2023-04-01T00:59:27;99147.72;;;18.04;51.73
30302;BME280;17111;52.130;5.028;2023-04-01T01:01:56;99150.41;;;18.04;51.62
30302;BME280;17111;52.130;5.028;2023-04-01T01:04:24;99144.44;;;18.02;51.53
30302;BME280;17111;52.130;5.028;2023-04-01T01:06:59;99151.63;;;18.02;51.66
30302;BME280;17111;52.130;5.028;2023-04-01T01:09:46;99150.16;;;17.99;51.70
30302;BME280;17111;52.130;5.028;2023-04-01T01:12:31;99144.81;;;17.99;51.47
30302;BME280;17111;52.130;5.028;2023-04-01T01:15:32;99153.88;;;17.98;51.39
30302;BME280;17111;52.130;5.028;2023-04-01T01:26:40;99158.78;;;17.94;51.76
30302;BME280;17111;52.130;5.028;2023-04-01T01:34:31;99158.16;;;17.92;51.89
30302;BME280;17111;52.130;5.028;2023-04-01T01:37:05;99155.28;;;17.94;51.70
30302;BME280;17111;52.130;5.028;2023-04-01T01:39:34;99163.50;;;17.92;51.65
30302;BME280;17111;52.130;5.028;2023-04-01T01:42:04;99160.22;;;17.90;51.51
30302;BME280;17111;52.130;5.028;2023-04-01T01:44:33;99165.56;;;17.90;51.77
30302;BME280;17111;52.130;5.028;2023-04-01T01:47:02;99172.78;;;17.90;51.43
30302;BME280;17111;52.130;5.028;2023-04-01T01:49:29;99162.25;;;17.88;51.65
30302;BME280;17111;52.130;5.028;2023-04-01T01:51:58;99166.78;;;17.88;51.65
30302;BME280;17111;52.130;5.028;2023-04-01T01:54:25;99168.84;;;17.86;51.82
30302;BME280;17111;52.130;5.028;2023-04-01T01:56:57;99168.84;;;17.86;51.89
30302;BME280;17111;52.130;5.028;2023-04-01T01:59:26;99170.69;;;17.85;51.99
30302;BME280;17111;52.130;5.028;2023-04-01T02:01:55;99177.88;;;17.85;51.97
30302;BME280;17111;52.130;5.028;2023-04-01T02:04:23;99177.88;;;17.85;51.91
30302;BME280;17111;52.130;5.028;2023-04-01T02:06:56;99178.06;;;17.83;52.15
30302;BME280;17111;52.130;5.028;2023-04-01T02:09:24;99186.94;;;17.84;51.71
30302;BME280;17111;52.130;5.028;2023-04-01T02:11:53;99187.97;;;17.83;52.10
30302;BME280;17111;52.130;5.028;2023-04-01T02:14:23;99191.69;;;17.82;52.25
30302;BME280;17111;52.130;5.028;2023-04-01T02:16:56;99191.69;;;17.82;52.28
30302;BME280;17111;52.130;5.028;2023-04-01T02:19:27;99190.00;;;17.81;52.07
30302;BME280;17111;52.130;5.028;2023-04-01T02:22:01;99195.34;;;17.81;52.30
30302;BME280;17111;52.130;5.028;2023-04-01T02:24:31;99199.91;;;17.80;52.34
30302;BME280;17111;52.130;5.028;2023-04-01T02:26:59;99207.09;;;17.80;52.11
30302;BME280;17111;52.130;5.028;2023-04-01T02:29:26;99200.91;;;17.79;51.90
30302;BME280;17111;52.130;5.028;2023-04-01T02:31:53;99199.28;;;17.78;52.43
30302;BME280;17111;52.130;5.028;2023-04-01T02:34:22;99209.16;;;17.78;52.03
30302;BME280;17111;52.130;5.028;2023-04-01T02:36:50;99207.50;;;17.76;52.22
30302;BME280;17111;52.130;5.028;2023-04-01T02:39:18;99211.84;;;17.78;52.06
30302;BME280;17111;52.130;5.028;2023-04-01T02:41:45;99212.03;;;17.76;52.30
30302;BME280;17111;52.130;5.028;2023-04-01T02:44:13;99214.69;;;17.76;52.17
30302;BME280;17111;52.130;5.028;2023-04-01T02:46:41;99212.22;;;17.74;52.27
30302;BME280;17111;52.130;5.028;2023-04-01T02:49:07;99218.41;;;17.75;52.00
30302;BME280;17111;52.130;5.028;2023-04-01T02:51:34;99218.41;;;17.75;52.43
30302;BME280;17111;52.130;5.028;2023-04-01T02:54:01;99225.63;;;17.74;52.30
30302;BME280;17111;52.130;5.028;2023-04-01T02:56:28;99230.97;;;17.74;52.44
30302;BME280;17111;52.130;5.028;2023-04-01T02:58:55;99231.97;;;17.73;52.30
30302;BME280;17111;52.130;5.028;2023-04-01T03:01:22;99236.34;;;17.74;52.28
30302;BME280;17111;52.130;5.028;2023-04-01T03:03:49;99235.66;;;17.72;52.78
30302;BME280;17111;52.130;5.028;2023-04-01T03:06:16;99241.00;;;17.72;52.51
30302;BME280;17111;52.130;5.028;2023-04-01T03:08:44;99244.38;;;17.74;52.11
30302;BME280;17111;52.130;5.028;2023-04-01T03:11:11;99248.06;;;17.73;52.44
30302;BME280;17111;52.130;5.028;2023-04-01T03:13:38;99242.69;;;17.73;52.45
30302;BME280;17111;52.130;5.028;2023-04-01T03:16:05;99256.09;;;17.73;52.55
30302;BME280;17111;52.130;5.028;2023-04-01T03:18:32;99253.59;;;17.72;52.20
30302;BME280;17111;52.130;5.028;2023-04-01T03:21:21;99260.81;;;17.71;52.38
30302;BME280;17111;52.130;5.028;2023-04-01T03:23:48;99267.81;;;17.72;52.51
30302;BME280;17111;52.130;5.028;2023-04-01T03:26:15;99263.31;;;17.73;52.36
30302;BME280;17111;52.130;5.028;2023-04-01T03:28:43;99279.38;;;17.73;52.19
30302;BME280;17111;52.130;5.028;2023-04-01T03:31:10;99275.84;;;17.72;52.35
30302;BME280;17111;52.130;5.028;2023-04-01T03:33:37;99283.88;;;17.72;52.28
30302;BME280;17111;52.130;5.028;2023-04-01T03:36:04;99281.22;;;17.72;52.15
30302;BME280;17111;52.130;5.028;2023-04-01T03:38:36;99290.28;;;17.71;52.06
30302;BME280;17111;52.130;5.028;2023-04-01T03:41:02;99294.59;;;17.72;52.53
30302;BME280;17111;52.130;5.028;2023-04-01T03:43:29;99297.28;;;17.72;51.76
30302;BME280;17111;52.130;5.028;2023-04-01T03:45:56;99296.47;;;17.72;52.43
30302;BME280;17111;52.130;5.028;2023-04-01T03:48:24;99301.00;;;17.71;52.04
30302;BME280;17111;52.130;5.028;2023-04-01T03:50:52;99311.72;;;17.71;52.30
30302;BME280;17111;52.130;5.028;2023-04-01T03:53:18;99305.31;;;17.72;52.34
30302;BME280;17111;52.130;5.028;2023-04-01T03:55:45;99317.06;;;17.71;52.38
30302;BME280;17111;52.130;5.028;2023-04-01T03:58:11;99322.44;;;17.71;52.77
30302;BME280;17111;52.130;5.028;2023-04-01T04:00:38;99324.09;;;17.72;52.58
30302;BME280;17111;52.130;5.028;2023-04-01T04:03:06;99328.63;;;17.72;52.29
30302;BME280;17111;52.130;5.028;2023-04-01T04:05:33;99325.09;;;17.71;52.40
30302;BME280;17111;52.130;5.028;2023-04-01T04:08:00;99333.97;;;17.72;52.42
30302;BME280;17111;52.130;5.028;2023-04-01T04:10:26;99333.16;;;17.71;52.67
30302;BME280;17111;52.130;5.028;2023-04-01T04:12:55;99339.53;;;17.70;52.41
30302;BME280;17111;52.130;5.028;2023-04-01T04:15:23;99343.88;;;17.71;52.62
30302;BME280;17111;52.130;5.028;2023-04-01T04:17:49;99355.59;;;17.70;52.84
30302;BME280;17111;52.130;5.028;2023-04-01T04:20:16;99356.44;;;17.71;52.76
30302;BME280;17111;52.130;5.028;2023-04-01T04:22:43;99359.31;;;17.69;52.62
30302;BME280;17111;52.130;5.028;2023-04-01T04:25:09;99355.59;;;17.70;52.79
30302;BME280;17111;52.130;5.028;2023-04-01T04:27:36;99377.03;;;17.70;52.61
30302;BME280;17111;52.130;5.028;2023-04-01T04:30:04;99372.50;;;17.71;52.68
30302;BME280;17111;52.130;5.028;2023-04-01T04:32:31;99372.50;;;17.71;52.53
30302;BME280;17111;52.130;5.028;2023-04-01T04:34:58;99378.91;;;17.70;52.81
30302;BME280;17111;52.130;5.028;2023-04-01T04:37:24;99387.75;;;17.70;52.67
30302;BME280;17111;52.130;5.028;2023-04-01T04:39:52;99391.28;;;17.71;53.01
30302;BME280;17111;52.130;5.028;2023-04-01T04:42:18;99390.44;;;17.70;52.80
30302;BME280;17111;52.130;5.028;2023-04-01T04:44:45;99396.81;;;17.69;52.63
30302;BME280;17111;52.130;5.028;2023-04-01T04:47:12;99393.31;;;17.69;52.99
30302;BME280;17111;52.130;5.028;2023-04-01T04:49:38;99407.56;;;17.69;52.91
30302;BME280;17111;52.130;5.028;2023-04-01T04:52:05;99412.91;;;17.69;52.55
30302;BME280;17111;52.130;5.028;2023-04-01T04:54:32;99415.59;;;17.69;52.98
30302;BME280;17111;52.130;5.028;2023-04-01T04:56:58;99420.13;;;17.69;52.77
30302;BME280;17111;52.130;5.028;2023-04-01T04:59:25;99426.31;;;17.69;52.92
30302;BME280;17111;52.130;5.028;2023-04-01T05:01:52;99421.94;;;17.68;52.98
30302;BME280;17111;52.130;5.028;2023-04-01T05:04:18;99429.81;;;17.70;52.74
30302;BME280;17111;52.130;5.028;2023-04-01T05:06:45;99430.84;;;17.69;52.82
30302;BME280;17111;52.130;5.028;2023-04-01T05:09:12;99431.66;;;17.69;52.92
30302;BME280;17111;52.130;5.028;2023-04-01T05:11:38;99440.69;;;17.68;52.93
30302;BME280;17111;52.130;5.028;2023-04-01T05:14:05;99446.91;;;17.69;52.48
30302;BME280;17111;52.130;5.028;2023-04-01T05:16:32;99453.09;;;17.69;52.58
30302;BME280;17111;52.130;5.028;2023-04-01T05:18:58;99463.00;;;17.69;52.70
30302;BME280;17111;52.130;5.028;2023-04-01T05:21:25;99464.81;;;17.68;53.02
30302;BME280;17111;52.130;5.028;2023-04-01T05:23:51;99464.81;;;17.68;52.69
30302;BME280;17111;52.130;5.028;2023-04-01T05:26:18;99472.84;;;17.68;52.66
30302;BME280;17111;52.130;5.028;2023-04-01T05:28:44;99471.19;;;17.67;52.60
30302;BME280;17111;52.130;5.028;2023-04-01T05:31:11;99476.38;;;17.69;52.66
30302;BME280;17111;52.130;5.028;2023-04-01T05:33:38;99480.06;;;17.68;52.59
30302;BME280;17111;52.130;5.028;2023-04-01T05:36:09;99486.44;;;17.67;52.97
30302;BME280;17111;52.130;5.028;2023-04-01T05:38:36;99489.13;;;17.67;53.06
30302;BME280;17111;52.130;5.028;2023-04-01T05:41:03;99494.47;;;17.67;52.92
30302;BME280;17111;52.130;5.028;2023-04-01T05:43:30;99499.84;;;17.67;52.85
30302;BME280;17111;52.130;5.028;2023-04-01T05:45:57;99500.66;;;17.67;52.70
30302;BME280;17111;52.130;5.028;2023-04-01T05:48:24;99502.53;;;17.67;52.54
30302;BME280;17111;52.130;5.028;2023-04-01T05:50:50;99507.06;;;17.66;52.42
30302;BME280;17111;52.130;5.028;2023-04-01T05:53:17;99505.41;;;17.65;52.71
30302;BME280;17111;52.130;5.028;2023-04-01T05:55:43;99501.69;;;17.66;52.86
30302;BME280;17111;52.130;5.028;2023-04-01T05:58:10;99507.06;;;17.66;52.70
30302;BME280;17111;52.130;5.028;2023-04-01T06:00:37;99513.44;;;17.65;52.98
30302;BME280;17111;52.130;5.028;2023-04-01T06:03:03;99522.31;;;17.66;52.91
30302;BME280;17111;52.130;5.028;2023-04-01T06:05:39;99523.13;;;17.66;52.77
30302;BME280;17111;52.130;5.028;2023-04-01T06:08:15;99516.13;;;17.65;53.15
30302;BME280;17111;52.130;5.028;2023-04-01T06:22:08;99546.34;;;17.74;53.29
30302;BME280;17111;52.130;5.028;2023-04-01T06:30:34;99564.50;;;18.02;53.49
30302;BME280;17111;52.130;5.028;2023-04-01T06:36:14;99570.22;;;18.28;52.62
30302;BME280;17111;52.130;5.028;2023-04-01T06:38:51;99579.09;;;18.43;52.20
30302;BME280;17111;52.130;5.028;2023-04-01T06:46:48;99579.97;;;18.80;51.55
30302;BME280;17111;52.130;5.028;2023-04-01T06:49:32;99591.03;;;18.92;51.35
30302;BME280;17111;52.130;5.028;2023-04-01T06:52:23;99600.09;;;19.06;51.04
30302;BME280;17111;52.130;5.028;2023-04-01T06:55:00;99597.06;;;19.15;50.74
30302;BME280;17111;52.130;5.028;2023-04-01T06:57:32;99602.50;;;19.22;50.91
30302;BME280;17111;52.130;5.028;2023-04-01T07:00:03;99605.19;;;19.22;50.66
30302;BME280;17111;52.130;5.028;2023-04-01T07:02:45;99607.22;;;19.20;50.72
30302;BME280;17111;52.130;5.028;2023-04-01T07:05:15;99614.47;;;19.19;51.32
30302;BME280;17111;52.130;5.028;2023-04-01T07:07:44;99625.41;;;19.18;50.93
30302;BME280;17111;52.130;5.028;2023-04-01T07:10:23;99619.38;;;19.16;51.22
30302;BME280;17111;52.130;5.028;2023-04-01T07:12:55;99627.44;;;19.16;51.22
30302;BME280;17111;52.130;5.028;2023-04-01T07:15:28;99638.19;;;19.16;51.46
30302;BME280;17111;52.130;5.028;2023-04-01T07:18:03;99637.56;;;19.14;51.55
30302;BME280;17111;52.130;5.028;2023-04-01T07:20:32;99639.38;;;19.13;51.28
30302;BME280;17111;52.130;5.028;2023-04-01T07:23:06;99644.97;;;19.12;51.75
30302;BME280;17111;52.130;5.028;2023-04-01T07:25:42;99646.81;;;19.11;51.34
30302;BME280;17111;52.130;5.028;2023-04-01T07:28:15;99653.84;;;19.12;51.51
30302;BME280;17111;52.130;5.028;2023-04-01T07:56:05;99695.25;;;19.18;51.29
30302;BME280;17111;52.130;5.028;2023-04-01T08:04:25;99710.34;;;19.19;51.12
30302;BME280;17111;52.130;5.028;2023-04-01T08:07:22;99707.66;;;19.19;51.49
30302;BME280;17111;52.130;5.028;2023-04-01T08:09:55;99714.69;;;19.20;51.56
30302;BME280;17111;52.130;5.028;2023-04-01T08:20:41;99735.13;;;19.21;51.48
30302;BME280;17111;52.130;5.028;2023-04-01T08:23:31;99738.50;;;19.23;51.85
30302;BME280;17111;52.130;5.028;2023-04-01T08:26:06;99735.03;;;19.29;51.97
30302;BME280;17111;52.130;5.028;2023-04-01T08:28:44;99742.59;;;19.40;51.51
30302;BME280;17111;52.130;5.028;2023-04-01T08:31:16;99735.91;;;19.51;51.25
30302;BME280;17111;52.130;5.028;2023-04-01T08:33:46;99758.13;;;19.60;51.10
30302;BME280;17111;52.130;5.028;2023-04-01T08:36:23;99758.50;;;19.71;50.16
30302;BME280;17111;52.130;5.028;2023-04-01T08:38:55;99756.88;;;19.77;50.72
30302;BME280;17111;52.130;5.028;2023-04-01T08:41:50;99757.16;;;19.82;50.40
30302;BME280;17111;52.130;5.028;2023-04-01T08:44:46;99766.31;;;19.88;50.30
30302;BME280;17111;52.130;5.028;2023-04-01T08:53:07;99779.03;;;20.01;50.21
30302;BME280;17111;52.130;5.028;2023-04-01T08:56:14;99784.25;;;20.02;50.16
30302;BME280;17111;52.130;5.028;2023-04-01T09:05:00;99791.16;;;20.11;50.23
30302;BME280;17111;52.130;5.028;2023-04-01T09:18:31;99807.16;;;20.19;49.47
30302;BME280;17111;52.130;5.028;2023-04-01T09:21:21;99814.19;;;20.20;49.52
30302;BME280;17111;52.130;5.028;2023-04-01T09:40:56;99827.66;;;19.99;49.43
30302;BME280;17111;52.130;5.028;2023-04-01T10:00:39;99842.31;;;19.96;49.53
30302;BME280;17111;52.130;5.028;2023-04-01T10:07:14;99853.31;;;20.02;49.55
30302;BME280;17111;52.130;5.028;2023-04-01T10:09:49;99859.16;;;20.05;49.74
30302;BME280;17111;52.130;5.028;2023-04-01T10:23:32;99867.50;;;20.10;49.79
30302;BME280;17111;52.130;5.028;2023-04-01T10:29:14;99870.81;;;20.12;50.05
30302;BME280;17111;52.130;5.028;2023-04-01T10:43:21;99887.34;;;20.09;50.21
30302;BME280;17111;52.130;5.028;2023-04-01T10:54:43;99909.19;;;20.00;50.39
30302;BME280;17111;52.130;5.028;2023-04-01T10:57:42;99902.97;;;19.99;50.30
30302;BME280;17111;52.130;5.028;2023-04-01T11:17:16;99905.16;;;20.10;49.52
30302;BME280;17111;52.130;5.028;2023-04-01T11:37:17;99937.59;;;20.24;49.56
30302;BME280;17111;52.130;5.028;2023-04-01T11:40:09;99940.91;;;20.26;49.61
30302;BME280;17111;52.130;5.028;2023-04-01T11:42:54;99941.38;;;20.29;49.48
30302;BME280;17111;52.130;5.028;2023-04-01T11:45:36;99941.00;;;20.32;50.01
30302;BME280;17111;52.130;5.028;2023-04-01T11:53:28;99957.59;;;20.36;49.38
30302;BME280;17111;52.130;5.028;2023-04-01T11:59:08;99972.72;;;20.37;49.42
30302;BME280;17111;52.130;5.028;2023-04-01T12:02:05;99982.66;;;20.36;50.08
30302;BME280;17111;52.130;5.028;2023-04-01T12:05:04;99983.31;;;20.38;49.75
30302;BME280;17111;52.130;5.028;2023-04-01T12:10:57;99991.38;;;20.38;50.35
30302;BME280;17111;52.130;5.028;2023-04-01T12:13:57;99984.31;;;20.37;49.82
30302;BME280;17111;52.130;5.028;2023-04-01T12:19:17;100003.97;;;20.38;50.17
30302;BME280;17111;52.130;5.028;2023-04-01T12:22:15;99997.59;;;20.39;49.83
30302;BME280;17111;52.130;5.028;2023-04-01T12:30:42;100013.09;;;20.37;50.16
30302;BME280;17111;52.130;5.028;2023-04-01T12:33:41;100017.63;;;20.36;50.81
30302;BME280;17111;52.130;5.028;2023-04-01T12:36:23;100019.28;;;20.37;50.24
30302;BME280;17111;52.130;5.028;2023-04-01T12:55:28;100037.41;;;20.58;50.36
30302;BME280;17111;52.130;5.028;2023-04-01T13:06:49;100050.00;;;20.58;50.04
30302;BME280;17111;52.130;5.028;2023-04-01T13:18:07;100071.84;;;20.63;50.22
30302;BME280;17111;52.130;5.028;2023-04-01T13:21:13;100070.13;;;20.62;50.77
30302;BME280;17111;52.130;5.028;2023-04-01T13:24:24;100075.53;;;20.62;50.61
30302;BME280;17111;52.130;5.028;2023-04-01T13:29:45;100084.06;;;20.65;50.21
30302;BME280;17111;52.130;5.028;2023-04-01T13:32:20;100091.78;;;20.68;49.65
30302;BME280;17111;52.130;5.028;2023-04-01T13:40:53;100106.16;;;20.76;49.83
30302;BME280;17111;52.130;5.028;2023-04-01T13:43:39;100108.00;;;20.75;50.05
30302;BME280;17111;52.130;5.028;2023-04-01T13:47:32;100108.84;;;20.76;49.67
30302;BME280;17111;52.130;5.028;2023-04-01T13:52:24;100117.97;;;20.75;50.26
30302;BME280;17111;52.130;5.028;2023-04-01T14:00:42;100123.72;;;20.72;49.88
30302;BME280;17111;52.130;5.028;2023-04-01T14:03:37;100127.44;;;20.70;49.95
30302;BME280;17111;52.130;5.028;2023-04-01T14:11:39;100140.78;;;20.79;49.74
30302;BME280;17111;52.130;5.028;2023-04-01T14:25:41;100159.69;;;21.00;49.83
30302;BME280;17111;52.130;5.028;2023-04-01T14:34:41;100171.88;;;20.96;50.20
30302;BME280;17111;52.130;5.028;2023-04-01T14:40:14;100181.16;;;20.93;50.36
30302;BME280;17111;52.130;5.028;2023-04-01T14:48:38;100201.25;;;20.91;50.48
30302;BME280;17111;52.130;5.028;2023-04-01T14:51:33;100202.25;;;20.90;49.78
30302;BME280;17111;52.130;5.028;2023-04-01T14:54:16;100209.69;;;20.88;50.19
30302;BME280;17111;52.130;5.028;2023-04-01T14:57:09;100205.69;;;20.84;50.19
30302;BME280;17111;52.130;5.028;2023-04-01T14:59:40;100206.72;;;20.83;49.99
30302;BME280;17111;52.130;5.028;2023-04-01T15:02:26;100221.59;;;20.79;49.66
30302;BME280;17111;52.130;5.028;2023-04-01T15:11:03;100234.13;;;20.72;49.55
30302;BME280;17111;52.130;5.028;2023-04-01T15:28:37;100266.44;;;20.57;49.93
30302;BME280;17111;52.130;5.028;2023-04-01T15:31:22;100278.03;;;20.57;49.77
30302;BME280;17111;52.130;5.028;2023-04-01T15:37:26;100285.16;;;20.50;49.98
30302;BME280;17111;52.130;5.028;2023-04-01T15:42:46;100295.25;;;20.48;49.93
30302;BME280;17111;52.130;5.028;2023-04-01T15:48:17;100305.44;;;20.38;49.22
30302;BME280;17111;52.130;5.028;2023-04-01T15:51:07;100313.06;;;20.34;49.30
30302;BME280;17111;52.130;5.028;2023-04-01T15:53:47;100318.63;;;20.33;49.51
30302;BME280;17111;52.130;5.028;2023-04-01T16:02:11;100335.97;;;20.30;49.79
30302;BME280;17111;52.130;5.028;2023-04-01T16:05:00;100332.25;;;20.31;49.51
30302;BME280;17111;52.130;5.028;2023-04-01T16:07:48;100341.38;;;20.30;49.84
30302;BME280;17111;52.130;5.028;2023-04-01T16:10:35;100352.13;;;20.30;49.80
30302;BME280;17111;52.130;5.028;2023-04-01T16:16:17;100355.81;;;20.29;49.39
30302;BME280;17111;52.130;5.028;2023-04-01T16:24:32;100365.09;;;20.27;49.90
30302;BME280;17111;52.130;5.028;2023-04-01T16:27:16;100374.84;;;20.28;49.47
30302;BME280;17111;52.130;5.028;2023-04-01T16:35:46;100391.19;;;20.26;49.72
30302;BME280;17111;52.130;5.028;2023-04-01T16:41:38;100396.72;;;20.25;50.03
30302;BME280;17111;52.130;5.028;2023-04-01T16:44:08;100411.84;;;20.26;49.13
30302;BME280;17111;52.130;5.028;2023-04-01T16:46:44;100410.19;;;20.25;49.12
30302;BME280;17111;52.130;5.028;2023-04-01T16:51:52;100427.34;;;20.24;49.41
30302;BME280;17111;52.130;5.028;2023-04-01T16:54:50;100433.75;;;20.23;49.29
30302;BME280;17111;52.130;5.028;2023-04-01T16:57:37;100449.91;;;20.23;49.47
30302;BME280;17111;52.130;5.028;2023-04-01T17:00:26;100445.50;;;20.21;49.61
30302;BME280;17111;52.130;5.028;2023-04-01T17:03:20;100451.91;;;20.20;49.13
30302;BME280;17111;52.130;5.028;2023-04-01T17:08:37;100460.34;;;20.17;49.93
30302;BME280;17111;52.130;5.028;2023-04-01T17:11:16;100472.31;;;20.15;49.88
30302;BME280;17111;52.130;5.028;2023-04-01T17:31:10;100521.09;;;20.12;49.92
30302;BME280;17111;52.130;5.028;2023-04-01T17:36:35;100538.09;;;20.04;49.69
30302;BME280;17111;52.130;5.028;2023-04-01T17:52:51;100571.56;;;20.02;49.50
30302;BME280;17111;52.130;5.028;2023-04-01T17:58:20;100581.69;;;20.00;49.83
30302;BME280;17111;52.130;5.028;2023-04-01T18:06:11;100596.16;;;19.99;49.44
30302;BME280;17111;52.130;5.028;2023-04-01T18:09:00;100605.06;;;19.99;49.84
30302;BME280;17111;52.130;5.028;2023-04-01T18:17:22;100628.44;;;19.99;49.91
30302;BME280;17111;52.130;5.028;2023-04-01T18:20:02;100637.34;;;19.99;49.76
30302;BME280;17111;52.130;5.028;2023-04-01T18:22:43;100647.91;;;20.01;49.40
30302;BME280;17111;52.130;5.028;2023-04-01T18:25:32;100657.19;;;19.98;50.02
30302;BME280;17111;52.130;5.028;2023-04-01T18:28:39;100657.19;;;19.98;49.36
30302;BME280;17111;52.130;5.028;2023-04-01T18:31:25;100662.56;;;19.98;49.48
30302;BME280;17111;52.130;5.028;2023-04-01T18:36:44;100685.91;;;19.97;49.10
30302;BME280;17111;52.130;5.028;2023-04-01T18:39:17;100685.91;;;19.97;49.51
30302;BME280;17111;52.130;5.028;2023-04-01T18:44:46;100700.38;;;19.96;49.26
30302;BME280;17111;52.130;5.028;2023-04-01T18:52:46;100717.22;;;19.99;49.17
30302;BME280;17111;52.130;5.028;2023-04-01T18:55:23;100728.94;;;19.97;49.61
30302;BME280;17111;52.130;5.028;2023-04-01T18:57:54;100738.88;;;19.97;49.60
30302;BME280;17111;52.130;5.028;2023-04-01T19:00:35;100731.81;;;19.96;49.77
30302;BME280;17111;52.130;5.028;2023-04-01T19:03:11;100746.13;;;19.96;49.73
30302;BME280;17111;52.130;5.028;2023-04-01T19:05:45;100750.47;;;19.97;49.48
30302;BME280;17111;52.130;5.028;2023-04-01T19:08:31;100756.22;;;19.94;49.73
30302;BME280;17111;52.130;5.028;2023-04-01T19:13:50;100769.50;;;19.96;49.72
30302;BME280;17111;52.130;5.028;2023-04-01T19:19:29;100782.09;;;19.95;49.24
30302;BME280;17111;52.130;5.028;2023-04-01T19:35:41;100823.28;;;19.88;49.28
30302;BME280;17111;52.130;5.028;2023-04-01T19:38:30;100825.63;;;19.83;49.70
30302;BME280;17111;52.130;5.028;2023-04-01T19:45:02;100838.06;;;19.76;50.77
30302;BME280;17111;52.130;5.028;2023-04-01T19:47:06;100843.75;;;19.72;50.36
30302;BME280;17111;52.130;5.028;2023-04-01T19:49:38;100848.47;;;19.70;51.10
30302;BME280;17111;52.130;5.028;2023-04-01T19:55:02;100857.38;;;19.71;51.17
30302;BME280;17111;52.130;5.028;2023-04-01T19:58:16;100870.66;;;19.72;51.52
30302;BME280;17111;52.130;5.028;2023-04-01T20:00:51;100876.38;;;19.78;51.24
30302;BME280;17111;52.130;5.028;2023-04-01T20:06:47;100891.34;;;19.80;51.04
30302;BME280;17111;52.130;5.028;2023-04-01T20:09:42;100897.25;;;19.84;51.68
30302;BME280;17111;52.130;5.028;2023-04-01T20:14:58;100907.69;;;19.87;50.43
30302;BME280;17111;52.130;5.028;2023-04-01T20:17:42;100916.59;;;19.87;50.88
30302;BME280;17111;52.130;5.028;2023-04-01T20:25:17;100923.31;;;19.91;50.50
30302;BME280;17111;52.130;5.028;2023-04-01T20:27:51;100926.69;;;19.93;51.20
30302;BME280;17111;52.130;5.028;2023-04-01T21:04:22;101017.78;;;19.54;51.07
30302;BME280;17111;52.130;5.028;2023-04-01T21:12:49;101034.22;;;19.51;51.13
30302;BME280;17111;52.130;5.028;2023-04-01T21:15:47;101031.00;;;19.47;51.22
30302;BME280;17111;52.130;5.028;2023-04-01T21:25:21;101062.91;;;19.42;51.44
30302;BME280;17111;52.130;5.028;2023-04-01T21:28:10;101075.50;;;19.42;51.60
30302;BME280;17111;52.130;5.028;2023-04-01T21:30:54;101080.16;;;19.40;51.11
30302;BME280;17111;52.130;5.028;2023-04-01T21:33:34;101085.53;;;19.40;51.71
30302;BME280;17111;52.130;5.028;2023-04-01T21:36:49;101079.63;;;19.36;51.09
30302;BME280;17111;52.130;5.028;2023-04-01T21:54:00;101115.66;;;19.43;50.98
30302;BME280;17111;52.130;5.028;2023-04-01T22:07:52;101152.06;;;19.38;50.19
30302;BME280;17111;52.130;5.028;2023-04-01T22:12:58;101154.22;;;19.34;50.56
30302;BME280;17111;52.130;5.028;2023-04-01T22:15:52;101159.06;;;19.31;50.31
30302;BME280;17111;52.130;5.028;2023-04-01T22:18:32;101162.88;;;19.28;50.82
30302;BME280;17111;52.130;5.028;2023-04-01T22:21:11;101170.41;;;19.24;50.35
30302;BME280;17111;52.130;5.028;2023-04-01T22:23:44;101168.19;;;19.20;50.17
30302;BME280;17111;52.130;5.028;2023-04-01T22:26:40;101184.78;;;19.15;50.25
30302;BME280;17111;52.130;5.028;2023-04-01T22:32:09;101185.53;;;19.08;50.38
30302;BME280;17111;52.130;5.028;2023-04-01T22:34:53;101188.50;;;19.05;51.07
30302;BME280;17111;52.130;5.028;2023-04-01T22:42:48;101207.41;;;18.95;50.81
30302;BME280;17111;52.130;5.028;2023-04-01T22:45:33;101203.31;;;18.91;50.48
30302;BME280;17111;52.130;5.028;2023-04-01T22:51:19;101222.72;;;18.85;50.84
30302;BME280;17111;52.130;5.028;2023-04-01T22:54:04;101231.09;;;18.82;51.16